createdAt,value
2023-04-04T00:00:25.581Z,102994.56
2023-04-04T00:02:54.794Z,102998.44
2023-04-04T00:05:21.302Z,102997.69
2023-04-04T00:07:48.023Z,102988.91
2023-04-04T00:10:15.038Z,102993.25
2023-04-04T00:12:42.313Z,102990.47
2023-04-04T00:15:09.285Z,102988.28
2023-04-04T00:17:35.772Z,102979.31
2023-04-04T00:20:04.499Z,102988.81
2023-04-04T00:22:31.538Z,102985.59
2023-04-04T00:24:58.151Z,102983.28
2023-04-04T00:27:24.620Z,102988.41
2023-04-04T00:29:51.091Z,102985.06
2023-04-04T00:32:17.580Z,102977.59
2023-04-04T00:34:44.070Z,102978.50
2023-04-04T00:37:13.089Z,102964.91
2023-04-04T00:39:39.697Z,102973.53
2023-04-04T00:42:06.644Z,102964.38
2023-04-04T00:44:35.704Z,102975.19
2023-04-04T00:47:03.214Z,102954.09
2023-04-04T00:49:29.693Z,102960.91
2023-04-04T00:51:56.889Z,102957.81
2023-04-04T00:54:23.495Z,102953.22
2023-04-04T00:56:55.110Z,102943.03
2023-04-04T00:59:27.784Z,102936.34
2023-04-04T01:01:54.417Z,102934.19
2023-04-04T01:04:21.247Z,102933.44
2023-04-04T01:06:47.808Z,102927.09
2023-04-04T01:09:14.257Z,102936.09
2023-04-04T01:11:40.815Z,102932.41
2023-04-04T01:14:07.438Z,102930.94
2023-04-04T01:16:35.943Z,102938.00
2023-04-04T01:19:02.969Z,102930.84
2023-04-04T01:21:29.663Z,102928.56
2023-04-04T01:24:01.347Z,102931.59
2023-04-04T01:26:28.954Z,102936.81
2023-04-04T01:28:56.461Z,102933.09
2023-04-04T01:31:44.136Z,102928.84
2023-04-04T01:34:38.070Z,102938.41
2023-04-04T01:37:23.248Z,102929.19
2023-04-04T01:39:54.060Z,102923.97
2023-04-04T01:42:20.559Z,102930.47
2023-04-04T01:44:47.300Z,102929.25
2023-04-04T01:47:13.804Z,102922.41
2023-04-04T01:49:40.885Z,102917.38
2023-04-04T01:52:07.432Z,102910.03
2023-04-04T01:54:35.918Z,102901.91
2023-04-04T01:57:02.618Z,102902.03
2023-04-04T01:59:29.310Z,102901.81
2023-04-04T02:01:56.267Z,102901.25
2023-04-04T02:04:23.227Z,102902.72
2023-04-04T02:06:50.334Z,102903.63
2023-04-04T02:09:16.847Z,102900.97
2023-04-04T02:11:43.310Z,102900.69
2023-04-04T02:14:09.852Z,102898.88
2023-04-04T02:16:36.328Z,102900.94
2023-04-04T02:19:02.935Z,102895.47
2023-04-04T02:21:29.394Z,102901.78
2023-04-04T02:23:55.828Z,102895.59
2023-04-04T02:26:22.511Z,102906.25
2023-04-04T02:28:48.971Z,102905.06
2023-04-04T02:31:15.793Z,102904.84
2023-04-04T02:33:42.284Z,102903.47
2023-04-04T02:36:09.107Z,102892.81
2023-04-04T02:38:35.552Z,102891.75
2023-04-04T02:41:02.044Z,102895.63
2023-04-04T02:43:28.479Z,102889.72
2023-04-04T02:45:55.003Z,102888.72
2023-04-04T02:48:21.477Z,102890.22
2023-04-04T02:50:48.090Z,102902.66
2023-04-04T02:53:14.614Z,102895.59
2023-04-04T02:55:41.107Z,102899.72
2023-04-04T02:58:07.648Z,102896.66
2023-04-04T03:00:34.114Z,102892.03
2023-04-04T03:03:00.683Z,102896.47
2023-04-04T03:05:28.375Z,102885.84
2023-04-04T03:07:58.265Z,102891.28
2023-04-04T03:10:25.803Z,102883.56
2023-04-04T03:12:52.339Z,102878.28
2023-04-04T03:15:19.568Z,102875.31
2023-04-04T03:17:46.740Z,102874.69
2023-04-04T03:20:15.123Z,102873.41
2023-04-04T03:22:42.213Z,102879.16
2023-04-04T03:25:09.370Z,102878.94
2023-04-04T03:27:35.910Z,102876.09
2023-04-04T03:30:02.846Z,102878.03
2023-04-04T03:32:29.802Z,102878.16
2023-04-04T03:34:56.542Z,102876.88
2023-04-04T03:37:23.274Z,102880.09
2023-04-04T03:39:49.743Z,102883.38
2023-04-04T03:42:16.838Z,102883.81
2023-04-04T03:44:43.289Z,102885.72
2023-04-04T03:47:09.803Z,102883.41
2023-04-04T03:49:36.309Z,102882.53
2023-04-04T03:52:03.287Z,102880.84
2023-04-04T03:54:29.745Z,102882.78
2023-04-04T03:56:57.078Z,102892.53
2023-04-04T03:59:23.775Z,102879.78
2023-04-04T04:01:50.695Z,102884.06
2023-04-04T04:04:17.179Z,102872.63
2023-04-04T04:06:44.115Z,102871.97
2023-04-04T04:09:12.296Z,102865.28
2023-04-04T04:11:38.828Z,102863.38
2023-04-04T04:14:05.441Z,102865.56
2023-04-04T04:16:33.023Z,102866.81
2023-04-04T04:18:59.730Z,102867.00
2023-04-04T04:21:26.262Z,102871.72
2023-04-04T04:23:52.771Z,102875.81
2023-04-04T04:26:19.299Z,102883.00
2023-04-04T04:28:48.188Z,102877.63
2023-04-04T04:31:14.856Z,102883.00
2023-04-04T04:33:41.590Z,102881.97
2023-04-04T04:36:08.318Z,102879.88
2023-04-04T04:38:34.845Z,102868.28
2023-04-04T04:41:01.907Z,102860.66
2023-04-04T04:43:28.385Z,102858.59
2023-04-04T04:45:54.980Z,102852.69
2023-04-04T04:48:21.508Z,102859.91
2023-04-04T04:50:48.387Z,102860.03
2023-04-04T04:53:14.972Z,102858.59
2023-04-04T04:55:43.167Z,102864.91
2023-04-04T04:58:10.838Z,102861.69
2023-04-04T05:00:38.306Z,102863.00
2023-04-04T05:03:07.990Z,102866.06
2023-04-04T05:05:34.779Z,102872.50
2023-04-04T05:08:02.755Z,102866.81
2023-04-04T05:10:30.040Z,102863.50
2023-04-04T05:12:56.636Z,102859.97
2023-04-04T05:15:23.287Z,102856.47
2023-04-04T05:17:49.868Z,102855.09
2023-04-04T05:20:16.359Z,102858.56
2023-04-04T05:22:46.520Z,102868.38
2023-04-04T05:25:13.376Z,102862.47
2023-04-04T05:27:40.721Z,102877.63
2023-04-04T05:30:07.967Z,102868.00
2023-04-04T05:32:34.599Z,102870.94
2023-04-04T05:35:01.395Z,102874.81
2023-04-04T05:37:28.128Z,102872.47
2023-04-04T05:39:55.239Z,102872.47
2023-04-04T05:42:21.964Z,102875.69
2023-04-04T05:44:48.483Z,102869.66
2023-04-04T05:47:14.996Z,102872.47
2023-04-04T05:49:41.571Z,102867.56
2023-04-04T05:52:08.186Z,102869.00
2023-04-04T05:54:34.680Z,102869.38
2023-04-04T05:57:01.132Z,102863.69
2023-04-04T05:59:28.695Z,102871.44
2023-04-04T06:01:55.278Z,102872.59
2023-04-04T06:04:21.810Z,102866.94
2023-04-04T06:06:48.300Z,102865.94
2023-04-04T06:09:14.784Z,102866.84
2023-04-04T06:11:41.404Z,102862.75
2023-04-04T06:14:08.749Z,102864.50
2023-04-04T06:16:35.926Z,102864.78
2023-04-04T06:19:02.894Z,102865.91
2023-04-04T06:21:29.446Z,102864.34
2023-04-04T06:23:55.925Z,102866.38
2023-04-04T06:26:22.399Z,102860.47
2023-04-04T06:28:49.816Z,102858.53
2023-04-04T06:31:17.178Z,102859.78
2023-04-04T06:33:43.905Z,102849.09
2023-04-04T06:36:10.466Z,102860.38
2023-04-04T06:38:37.022Z,102848.31
2023-04-04T06:41:03.516Z,102848.63
2023-04-04T06:43:30.975Z,102852.59
2023-04-04T06:45:57.597Z,102847.00
2023-04-04T06:48:24.057Z,102851.63
2023-04-04T06:50:50.499Z,102845.81
2023-04-04T06:53:17.260Z,102845.13
2023-04-04T06:55:43.748Z,102843.91
2023-04-04T06:58:10.510Z,102849.69
2023-04-04T07:00:37.169Z,102843.75
2023-04-04T07:03:04.087Z,102843.47
2023-04-04T07:05:32.245Z,102837.56
2023-04-04T07:07:58.849Z,102849.56
2023-04-04T07:10:27.536Z,102843.28
2023-04-04T07:12:53.997Z,102841.09
2023-04-04T07:15:20.478Z,102847.25
2023-04-04T07:17:47.283Z,102838.75
2023-04-04T07:20:13.915Z,102840.16
2023-04-04T07:22:41.405Z,102841.84
2023-04-04T07:25:08.791Z,102840.78
2023-04-04T07:27:36.076Z,102833.75
2023-04-04T07:30:04.309Z,102835.16
2023-04-04T07:32:31.138Z,102830.72
2023-04-04T07:34:58.026Z,102829.50
2023-04-04T07:37:26.614Z,102829.50
2023-04-04T07:39:53.200Z,102823.72
2023-04-04T07:42:23.246Z,102824.50
2023-04-04T07:44:50.577Z,102823.63
2023-04-04T07:47:17.717Z,102830.41
2023-04-04T07:49:44.895Z,102825.75
2023-04-04T07:52:11.383Z,102833.44
2023-04-04T07:54:38.099Z,102827.22
2023-04-04T07:57:09.770Z,102830.50
2023-04-04T07:59:37.234Z,102835.84
2023-04-04T08:02:03.854Z,102831.38
2023-04-04T08:04:30.709Z,102826.91
2023-04-04T08:06:57.578Z,102819.81
2023-04-04T08:09:24.957Z,102825.72
2023-04-04T08:11:51.688Z,102824.94
2023-04-04T08:14:18.228Z,102818.94
2023-04-04T08:16:44.681Z,102819.00
2023-04-04T08:19:11.510Z,102814.56
2023-04-04T08:21:38.159Z,102822.84
2023-04-04T08:24:05.108Z,102824.47
2023-04-04T08:26:31.978Z,102808.31
2023-04-04T08:28:58.627Z,102815.09
2023-04-04T08:31:25.191Z,102815.00
2023-04-04T08:33:52.507Z,102821.47
2023-04-04T08:36:19.693Z,102810.44
2023-04-04T08:38:46.156Z,102814.56
2023-04-04T08:41:13.413Z,102807.22
2023-04-04T08:43:41.620Z,102799.06
2023-04-04T08:46:11.526Z,102800.34
2023-04-04T08:48:39.366Z,102799.72
2023-04-04T08:51:09.194Z,102794.34
2023-04-04T08:53:37.172Z,102800.72
2023-04-04T08:56:04.523Z,102781.59
2023-04-04T08:58:31.171Z,102783.22
2023-04-04T09:00:57.743Z,102789.97
2023-04-04T09:03:26.708Z,102782.03
2023-04-04T09:05:56.680Z,102780.28
2023-04-04T09:08:26.123Z,102772.53
2023-04-04T09:10:53.186Z,102781.69
2023-04-04T09:13:19.959Z,102786.97
2023-04-04T09:15:52.292Z,102791.69
2023-04-04T09:18:19.104Z,102773.53
2023-04-04T09:20:48.950Z,102772.88
2023-04-04T09:23:23.858Z,102775.09
2023-04-04T09:28:24.632Z,102763.19
2023-04-04T09:30:52.194Z,102760.81
2023-04-04T09:33:21.602Z,102763.66
2023-04-04T09:35:54.631Z,102764.94
2023-04-04T09:38:23.737Z,102763.63
2023-04-04T09:40:52.643Z,102767.00
2023-04-04T09:43:19.576Z,102760.44
2023-04-04T09:45:46.343Z,102762.09
2023-04-04T09:48:13.670Z,102770.88
2023-04-04T09:50:49.603Z,102759.53
2023-04-04T09:53:19.394Z,102767.06
2023-04-04T09:55:54.287Z,102775.50
2023-04-04T09:58:29.005Z,102770.47
2023-04-04T10:00:57.477Z,102771.72
2023-04-04T10:03:24.423Z,102774.16
2023-04-04T10:06:00.266Z,102780.88
2023-04-04T10:08:28.503Z,102774.94
2023-04-04T10:11:11.391Z,102774.22
2023-04-04T10:13:43.776Z,102769.06
2023-04-04T10:16:11.153Z,102769.06
2023-04-04T10:18:38.123Z,102757.66
2023-04-04T10:23:37.037Z,102759.41
2023-04-04T10:26:03.521Z,102763.06
2023-04-04T10:28:30.085Z,102758.00
2023-04-04T10:31:07.112Z,102741.03
2023-04-04T10:34:12.464Z,102744.03
2023-04-04T10:36:47.209Z,102741.28
2023-04-04T10:39:17.611Z,102730.28
2023-04-04T10:41:46.259Z,102727.88
2023-04-04T10:44:20.984Z,102728.84
2023-04-04T10:46:51.040Z,102723.50
2023-04-04T10:49:18.127Z,102719.81
2023-04-04T10:51:54.851Z,102721.50
2023-04-04T10:54:23.500Z,102720.56
2023-04-04T10:56:50.182Z,102716.47
2023-04-04T10:59:20.197Z,102711.81
2023-04-04T11:01:55.052Z,102723.06
2023-04-04T11:04:31.092Z,102715.94
2023-04-04T11:07:05.271Z,102717.31
2023-04-04T11:09:54.170Z,102707.63
2023-04-04T11:12:23.985Z,102704.13
2023-04-04T11:15:11.467Z,102711.66
2023-04-04T11:17:43.632Z,102712.78
2023-04-04T11:20:11.706Z,102703.06
2023-04-04T11:22:42.735Z,102710.16
2023-04-04T11:25:24.918Z,102706.50
2023-04-04T11:27:54.972Z,102706.59
2023-04-04T11:30:21.559Z,102700.34
2023-04-04T11:32:59.762Z,102692.75
2023-04-04T11:35:30.636Z,102698.78
2023-04-04T11:37:57.060Z,102690.97
2023-04-04T11:40:41.685Z,102692.50
2023-04-04T11:43:12.092Z,102704.94
2023-04-04T11:45:44.558Z,102688.72
2023-04-04T11:48:11.222Z,102684.44
2023-04-04T11:50:43.459Z,102687.53
2023-04-04T11:53:11.319Z,102681.38
2023-04-04T11:55:47.257Z,102682.88
2023-04-04T11:58:16.137Z,102675.88
2023-04-04T12:00:44.197Z,102671.56
2023-04-04T12:03:12.341Z,102673.22
2023-04-04T12:05:40.342Z,102669.78
2023-04-04T12:08:08.761Z,102668.81
2023-04-04T12:10:36.242Z,102666.47
2023-04-04T12:13:07.276Z,102673.22
2023-04-04T12:15:37.892Z,102666.00
2023-04-04T12:18:07.550Z,102658.88
2023-04-04T12:20:34.195Z,102669.03
2023-04-04T12:23:00.868Z,102666.06
2023-04-04T12:25:28.549Z,102652.84
2023-04-04T12:27:55.588Z,102654.91
2023-04-04T12:30:22.305Z,102650.66
2023-04-04T12:32:50.165Z,102655.66
2023-04-04T12:35:17.100Z,102648.72
2023-04-04T12:37:58.882Z,102644.97
2023-04-04T12:40:30.436Z,102652.72
2023-04-04T12:42:57.342Z,102640.06
2023-04-04T12:45:26.236Z,102636.00
2023-04-04T12:47:54.195Z,102635.00
2023-04-04T12:50:27.404Z,102634.31
2023-04-04T12:52:57.433Z,102629.53
2023-04-04T12:55:31.559Z,102633.31
2023-04-04T12:58:00.858Z,102622.44
2023-04-04T13:00:27.534Z,102624.31
2023-04-04T13:02:55.872Z,102616.69
2023-04-04T13:05:25.798Z,102609.78
2023-04-04T13:08:05.514Z,102611.00
2023-04-04T13:10:57.754Z,102606.78
2023-04-04T13:14:00.639Z,102601.44
2023-04-04T13:16:33.105Z,102606.34
2023-04-04T13:18:59.726Z,102597.44
2023-04-04T13:21:26.287Z,102607.63
2023-04-04T13:23:52.972Z,102592.78
2023-04-04T13:26:19.458Z,102594.84
2023-04-04T13:28:46.174Z,102594.97
2023-04-04T13:31:13.468Z,102583.63
2023-04-04T13:33:40.286Z,102579.47
2023-04-04T13:36:07.015Z,102579.47
2023-04-04T13:38:33.581Z,102578.63
2023-04-04T13:41:00.710Z,102570.72
2023-04-04T13:43:27.760Z,102573.47
2023-04-04T13:45:55.752Z,102579.38
2023-04-04T13:48:22.800Z,102555.44
2023-04-04T13:50:53.256Z,102561.91
2023-04-04T13:53:20.159Z,102562.06
2023-04-04T13:56:12.973Z,102552.53
2023-04-04T13:58:33.305Z,102553.88
2023-04-04T14:01:03.451Z,102548.72
2023-04-04T14:03:31.442Z,102559.06
2023-04-04T14:06:00.337Z,102560.56
2023-04-04T14:08:31.034Z,102545.00
2023-04-04T14:10:57.706Z,102541.22
2023-04-04T14:13:24.162Z,102534.13
2023-04-04T14:15:50.978Z,102538.41
2023-04-04T14:18:17.496Z,102531.38
2023-04-04T14:20:44.126Z,102530.69
2023-04-04T14:23:10.747Z,102534.72
2023-04-04T14:25:37.208Z,102535.31
2023-04-04T14:28:03.857Z,102527.53
2023-04-04T14:30:30.532Z,102521.34
2023-04-04T14:32:57.037Z,102519.72
2023-04-04T14:35:23.627Z,102519.31
2023-04-04T14:37:50.101Z,102524.78
2023-04-04T14:40:16.789Z,102512.59
2023-04-04T14:42:43.249Z,102516.34
2023-04-04T14:45:11.355Z,102508.06
2023-04-04T14:47:37.972Z,102501.72
2023-04-04T14:50:04.937Z,102506.69
2023-04-04T14:52:31.672Z,102505.22
2023-04-04T14:54:58.271Z,102505.47
2023-04-04T14:57:24.929Z,102493.53
2023-04-04T14:59:51.450Z,102505.88
2023-04-04T15:02:18.284Z,102500.13
2023-04-04T15:04:44.909Z,102491.34
2023-04-04T15:07:11.498Z,102491.66
2023-04-04T15:09:37.946Z,102491.66
2023-04-04T15:12:06.701Z,102486.66
2023-04-04T15:14:33.202Z,102481.09
2023-04-04T15:16:59.960Z,102483.09
2023-04-04T15:19:26.407Z,102485.31
2023-04-04T15:21:53.322Z,102480.78
2023-04-04T15:24:19.746Z,102482.44
2023-04-04T15:26:46.492Z,102478.50
2023-04-04T15:29:14.650Z,102477.28
2023-04-04T15:31:41.504Z,102478.44
2023-04-04T15:34:09.498Z,102479.41
2023-04-04T15:36:36.551Z,102475.66
2023-04-04T15:39:03.523Z,102476.84
2023-04-04T15:41:30.161Z,102463.81
2023-04-04T15:43:56.646Z,102466.78
2023-04-04T15:46:23.226Z,102465.59
2023-04-04T15:48:52.054Z,102460.63
2023-04-04T15:51:18.666Z,102455.09
2023-04-04T15:53:45.161Z,102453.25
2023-04-04T15:56:11.860Z,102458.84
2023-04-04T15:58:38.314Z,102445.00
2023-04-04T16:01:06.598Z,102449.91
2023-04-04T16:03:33.148Z,102452.53
2023-04-04T16:06:00.759Z,102444.25
2023-04-04T16:08:27.234Z,102451.72
2023-04-04T16:10:53.762Z,102450.66
2023-04-04T16:13:20.446Z,102447.28
2023-04-04T16:15:50.184Z,102451.53
2023-04-04T16:18:16.676Z,102446.97
2023-04-04T16:20:43.138Z,102431.66
2023-04-04T16:23:09.645Z,102437.69
2023-04-04T16:25:36.386Z,102443.00
2023-04-04T16:28:03.938Z,102437.94
2023-04-04T16:30:30.430Z,102439.53
2023-04-04T16:32:56.950Z,102431.53
2023-04-04T16:35:23.516Z,102426.69
2023-04-04T16:37:49.991Z,102437.63
2023-04-04T16:40:16.618Z,102441.13
2023-04-04T16:42:43.073Z,102430.16
2023-04-04T16:45:10.365Z,102432.88
2023-04-04T16:47:37.061Z,102429.56
2023-04-04T16:50:04.869Z,102440.88
2023-04-04T16:52:31.368Z,102435.03
2023-04-04T16:54:57.821Z,102441.41
2023-04-04T16:57:24.450Z,102436.03
2023-04-04T16:59:50.898Z,102436.47
2023-04-04T17:02:17.481Z,102432.50
2023-04-04T17:04:44.562Z,102439.88
2023-04-04T17:07:11.151Z,102436.94
2023-04-04T17:09:41.337Z,102423.69
2023-04-04T17:12:08.195Z,102434.91
2023-04-04T17:14:35.567Z,102430.66
2023-04-04T17:17:02.157Z,102427.16
2023-04-04T17:19:30.325Z,102420.44
2023-04-04T17:21:58.206Z,102424.97
2023-04-04T17:24:25.618Z,102428.28
2023-04-04T17:26:52.385Z,102422.19
2023-04-04T17:29:18.967Z,102432.66
2023-04-04T17:31:48.960Z,102424.28
2023-04-04T17:34:16.190Z,102414.78
2023-04-04T17:36:42.968Z,102424.13
2023-04-04T17:39:09.596Z,102422.47
2023-04-04T17:41:36.298Z,102417.00
2023-04-04T17:44:03.768Z,102415.09
2023-04-04T17:46:31.326Z,102420.81
2023-04-04T17:48:57.857Z,102424.50
2023-04-04T17:51:24.342Z,102419.53
2023-04-04T17:53:51.254Z,102421.50
2023-04-04T17:56:18.826Z,102420.25
2023-04-04T17:58:45.759Z,102422.06
2023-04-04T18:01:13.767Z,102425.28
2023-04-04T18:03:40.554Z,102423.13
2023-04-04T18:06:07.167Z,102425.97
2023-04-04T18:08:33.610Z,102423.59
2023-04-04T18:11:00.146Z,102424.25
2023-04-04T18:13:26.707Z,102422.38
2023-04-04T18:15:53.343Z,102423.09
2023-04-04T18:18:21.309Z,102434.88
2023-04-04T18:20:48.278Z,102425.16
2023-04-04T18:23:16.798Z,102422.63
2023-04-04T18:25:43.304Z,102428.88
2023-04-04T18:28:11.631Z,102428.22
2023-04-04T18:30:39.072Z,102434.75
2023-04-04T18:33:06.448Z,102431.59
2023-04-04T18:35:33.042Z,102433.50
2023-04-04T18:38:03.003Z,102420.22
2023-04-04T18:40:29.540Z,102425.84
2023-04-04T18:42:56.487Z,102430.91
2023-04-04T18:45:29.881Z,102426.16
2023-04-04T18:48:01.393Z,102428.81
2023-04-04T18:50:28.598Z,102422.63
2023-04-04T18:52:56.801Z,102433.81
2023-04-04T18:55:23.278Z,102426.81
2023-04-04T18:57:49.815Z,102434.19
2023-04-04T19:00:16.657Z,102430.97
2023-04-04T19:02:43.203Z,102435.25
2023-04-04T19:05:12.316Z,102435.75
2023-04-04T19:07:40.275Z,102432.22
2023-04-04T19:10:07.407Z,102430.59
2023-04-04T19:12:34.058Z,102434.25
2023-04-04T19:15:01.363Z,102437.22
2023-04-04T19:17:27.980Z,102426.34
2023-04-04T19:19:54.425Z,102443.91
2023-04-04T19:22:20.851Z,102435.69
2023-04-04T19:24:47.316Z,102435.41
2023-04-04T19:27:13.790Z,102437.91
2023-04-04T19:29:40.414Z,102438.72
2023-04-04T19:32:13.872Z,102435.31
2023-04-04T19:34:42.610Z,102441.59
2023-04-04T19:37:13.303Z,102446.88
2023-04-04T19:39:42.187Z,102444.41
2023-04-04T19:42:09.325Z,102439.19
2023-04-04T19:44:42.866Z,102436.84
2023-04-04T19:47:10.538Z,102432.22
2023-04-04T19:49:38.182Z,102440.09
2023-04-04T19:52:05.737Z,102440.50
2023-04-04T19:54:42.951Z,102428.28
2023-04-04T19:57:17.547Z,102431.94
2023-04-04T20:00:13.578Z,102429.81
2023-04-04T20:02:51.466Z,102426.03
2023-04-04T20:05:41.541Z,102427.63
2023-04-04T20:08:09.671Z,102430.22
2023-04-04T20:10:38.285Z,102437.00
2023-04-04T20:13:08.527Z,102425.00
2023-04-04T20:15:47.665Z,102423.47
2023-04-04T20:18:24.467Z,102426.47
2023-04-04T20:21:07.207Z,102436.47
2023-04-04T20:23:49.569Z,102430.16
2023-04-04T20:26:35.100Z,102433.22
2023-04-04T20:29:12.040Z,102425.47
2023-04-04T20:31:45.559Z,102432.63
2023-04-04T20:34:41.379Z,102432.41
2023-04-04T20:37:26.613Z,102435.28
2023-04-04T20:40:01.127Z,102433.41
2023-04-04T20:42:31.057Z,102425.44
2023-04-04T20:45:10.282Z,102429.84
2023-04-04T20:47:45.757Z,102436.19
2023-04-04T20:50:18.487Z,102426.16
2023-04-04T20:52:59.719Z,102429.97
2023-04-04T20:55:28.421Z,102429.34
2023-04-04T20:58:34.343Z,102437.72
2023-04-04T21:01:05.522Z,102432.53
2023-04-04T21:03:35.621Z,102439.06
2023-04-04T21:06:11.566Z,102437.69
2023-04-04T21:08:49.746Z,102440.09
2023-04-04T21:11:30.212Z,102432.53
2023-04-04T21:13:57.847Z,102445.91
2023-04-04T21:16:26.648Z,102428.44
2023-04-04T21:18:57.915Z,102430.03
2023-04-04T21:21:24.386Z,102427.72
2023-04-04T21:23:55.501Z,102424.56
2023-04-04T21:26:28.806Z,102419.63
2023-04-04T21:28:56.916Z,102420.94
2023-04-04T21:31:26.223Z,102417.59
2023-04-04T21:33:54.698Z,102413.41
2023-04-04T21:36:24.121Z,102410.97
2023-04-04T21:38:52.138Z,102415.53
2023-04-04T21:41:25.869Z,102414.41
2023-04-04T21:43:57.138Z,102420.16
2023-04-04T21:46:25.731Z,102411.78
2023-04-04T21:48:53.157Z,102409.63
2023-04-04T21:51:19.864Z,102410.31
2023-04-04T21:53:46.786Z,102402.13
2023-04-04T21:56:13.996Z,102410.16
2023-04-04T21:58:41.200Z,102407.69
2023-04-04T22:01:08.158Z,102400.47
2023-04-04T22:03:34.902Z,102395.84
2023-04-04T22:06:01.375Z,102405.91
2023-04-04T22:08:27.945Z,102400.75
2023-04-04T22:10:54.486Z,102398.44
2023-04-04T22:13:22.678Z,102400.25
2023-04-04T22:15:49.816Z,102397.09
2023-04-04T22:18:16.949Z,102392.97
2023-04-04T22:20:47.662Z,102393.59
2023-04-04T22:23:15.601Z,102383.75
2023-04-04T22:25:42.164Z,102391.56
2023-04-04T22:28:09.179Z,102393.91
2023-04-04T22:30:38.787Z,102393.25
2023-04-04T22:33:05.825Z,102396.84
2023-04-04T22:35:32.908Z,102396.56
2023-04-04T22:38:00.820Z,102402.16
2023-04-04T22:40:30.709Z,102396.91
2023-04-04T22:42:57.540Z,102391.16
2023-04-04T22:45:24.667Z,102383.63
2023-04-04T22:47:51.424Z,102393.88
2023-04-04T22:50:24.490Z,102388.91
2023-04-04T22:52:52.412Z,102388.25
2023-04-04T22:55:20.844Z,102381.22
2023-04-04T22:57:47.349Z,102382.09
2023-04-04T23:00:14.719Z,102388.44
2023-04-04T23:02:43.187Z,102383.44
2023-04-04T23:05:11.332Z,102379.69
2023-04-04T23:07:38.483Z,102381.88
2023-04-04T23:10:06.375Z,102385.78
2023-04-04T23:12:32.877Z,102395.03
2023-04-04T23:15:01.502Z,102387.88
2023-04-04T23:17:28.121Z,102389.41
2023-04-04T23:19:55.110Z,102385.97
2023-04-04T23:22:21.761Z,102388.13
2023-04-04T23:24:48.558Z,102381.28
2023-04-04T23:27:16.013Z,102383.25
2023-04-04T23:29:42.953Z,102376.06
2023-04-04T23:32:10.303Z,102385.81
2023-04-04T23:34:37.818Z,102386.78
2023-04-04T23:37:05.026Z,102376.72
2023-04-04T23:39:31.811Z,102377.13
2023-04-04T23:42:01.150Z,102376.66
2023-04-04T23:44:27.650Z,102378.72
2023-04-04T23:46:54.274Z,102378.81
2023-04-04T23:49:20.805Z,102366.75
2023-04-04T23:51:47.332Z,102372.44
2023-04-04T23:54:13.810Z,102365.94
2023-04-04T23:56:40.782Z,102361.31
2023-04-04T23:59:07.457Z,102369.00
